sensor_id;sensor_type;location;lat;lon;timestamp;P1;durP1;ratioP1;P2;durP2;ratioP2
15116;SDS011;7659;51.038;13.786;2023-05-16T00:02:12;11.25;;;8.55;;
15116;SDS011;7659;51.038;13.786;2023-05-16T00:04:38;13.00;;;9.18;;
15116;SDS011;7659;51.038;13.786;2023-05-16T00:07:03;12.15;;;8.50;;
15116;SDS011;7659;51.038;13.786;2023-05-16T00:09:29;15.63;;;9.18;;
15116;SDS011;7659;51.038;13.786;2023-05-16T00:11:54;10.43;;;8.55;;
15116;SDS011;7659;51.038;13.786;2023-05-16T00:14:20;12.13;;;9.10;;
15116;SDS011;7659;51.038;13.786;2023-05-16T00:16:46;13.13;;;9.52;;
15116;SDS011;7659;51.038;13.786;2023-05-16T00:19:12;11.32;;;8.48;;
15116;SDS011;7659;51.038;13.786;2023-05-16T00:21:37;16.35;;;9.55;;
15116;SDS011;7659;51.038;13.786;2023-05-16T00:24:03;14.77;;;9.35;;
15116;SDS011;7659;51.038;13.786;2023-05-16T00:26:29;16.90;;;9.70;;
15116;SDS011;7659;51.038;13.786;2023-05-16T00:28:54;16.55;;;13.02;;
15116;SDS011;7659;51.038;13.786;2023-05-16T00:31:20;10.13;;;9.02;;
15116;SDS011;7659;51.038;13.786;2023-05-16T00:33:45;13.57;;;8.57;;
15116;SDS011;7659;51.038;13.786;2023-05-16T00:36:11;11.27;;;9.27;;
15116;SDS011;7659;51.038;13.786;2023-05-16T00:38:37;13.48;;;10.10;;
15116;SDS011;7659;51.038;13.786;2023-05-16T00:41:02;12.85;;;9.77;;
15116;SDS011;7659;51.038;13.786;2023-05-16T00:43:28;12.00;;;9.30;;
15116;SDS011;7659;51.038;13.786;2023-05-16T00:45:54;19.63;;;9.70;;
15116;SDS011;7659;51.038;13.786;2023-05-16T00:48:19;12.57;;;9.38;;
15116;SDS011;7659;51.038;13.786;2023-05-16T00:50:45;11.50;;;9.60;;
15116;SDS011;7659;51.038;13.786;2023-05-16T00:53:11;14.45;;;10.43;;
15116;SDS011;7659;51.038;13.786;2023-05-16T00:55:37;14.05;;;10.05;;
15116;SDS011;7659;51.038;13.786;2023-05-16T00:58:03;11.57;;;9.30;;
15116;SDS011;7659;51.038;13.786;2023-05-16T01:00:29;12.20;;;9.80;;
15116;SDS011;7659;51.038;13.786;2023-05-16T01:02:55;10.95;;;9.50;;
15116;SDS011;7659;51.038;13.786;2023-05-16T01:05:21;12.60;;;9.82;;
15116;SDS011;7659;51.038;13.786;2023-05-16T01:07:46;13.98;;;10.48;;
15116;SDS011;7659;51.038;13.786;2023-05-16T01:10:12;14.38;;;10.32;;
15116;SDS011;7659;51.038;13.786;2023-05-16T01:12:44;13.27;;;10.20;;
15116;SDS011;7659;51.038;13.786;2023-05-16T01:15:14;17.98;;;11.18;;
15116;SDS011;7659;51.038;13.786;2023-05-16T01:17:56;12.70;;;10.05;;
15116;SDS011;7659;51.038;13.786;2023-05-16T01:20:39;15.32;;;11.23;;
15116;SDS011;7659;51.038;13.786;2023-05-16T01:28:05;11.23;;;9.93;;
15116;SDS011;7659;51.038;13.786;2023-05-16T01:30:34;14.00;;;10.60;;
15116;SDS011;7659;51.038;13.786;2023-05-16T01:33:00;14.05;;;10.35;;
15116;SDS011;7659;51.038;13.786;2023-05-16T01:35:25;15.63;;;10.32;;
15116;SDS011;7659;51.038;13.786;2023-05-16T01:38:05;11.82;;;10.05;;
15116;SDS011;7659;51.038;13.786;2023-05-16T01:43:17;12.85;;;10.50;;
15116;SDS011;7659;51.038;13.786;2023-05-16T01:45:46;12.30;;;10.93;;
15116;SDS011;7659;51.038;13.786;2023-05-16T01:48:21;18.20;;;11.40;;
15116;SDS011;7659;51.038;13.786;2023-05-16T01:50:48;12.52;;;10.73;;
15116;SDS011;7659;51.038;13.786;2023-05-16T01:53:19;16.85;;;10.55;;
15116;SDS011;7659;51.038;13.786;2023-05-16T01:55:47;17.50;;;11.48;;
15116;SDS011;7659;51.038;13.786;2023-05-16T01:58:14;15.02;;;11.15;;
15116;SDS011;7659;51.038;13.786;2023-05-16T02:00:41;12.63;;;11.27;;
15116;SDS011;7659;51.038;13.786;2023-05-16T02:03:06;13.05;;;11.07;;
15116;SDS011;7659;51.038;13.786;2023-05-16T02:05:32;13.23;;;11.32;;
15116;SDS011;7659;51.038;13.786;2023-05-16T02:07:58;11.82;;;10.50;;
15116;SDS011;7659;51.038;13.786;2023-05-16T02:10:23;14.38;;;11.93;;
15116;SDS011;7659;51.038;13.786;2023-05-16T02:12:49;12.85;;;11.18;;
15116;SDS011;7659;51.038;13.786;2023-05-16T02:15:15;17.33;;;12.27;;
15116;SDS011;7659;51.038;13.786;2023-05-16T02:17:40;19.65;;;11.65;;
15116;SDS011;7659;51.038;13.786;2023-05-16T02:20:06;16.13;;;11.55;;
15116;SDS011;7659;51.038;13.786;2023-05-16T02:22:34;16.00;;;12.48;;
15116;SDS011;7659;51.038;13.786;2023-05-16T02:25:01;15.70;;;12.00;;
15116;SDS011;7659;51.038;13.786;2023-05-16T02:27:27;14.32;;;11.50;;
15116;SDS011;7659;51.038;13.786;2023-05-16T02:29:53;13.60;;;11.65;;
15116;SDS011;7659;51.038;13.786;2023-05-16T02:32:18;12.90;;;11.60;;
15116;SDS011;7659;51.038;13.786;2023-05-16T02:34:44;17.88;;;12.18;;
15116;SDS011;7659;51.038;13.786;2023-05-16T02:37:09;14.60;;;11.77;;
15116;SDS011;7659;51.038;13.786;2023-05-16T02:39:35;17.63;;;11.50;;
15116;SDS011;7659;51.038;13.786;2023-05-16T02:42:02;16.88;;;12.48;;
15116;SDS011;7659;51.038;13.786;2023-05-16T02:44:28;14.93;;;12.00;;
15116;SDS011;7659;51.038;13.786;2023-05-16T02:46:53;16.33;;;12.70;;
15116;SDS011;7659;51.038;13.786;2023-05-16T02:49:19;15.05;;;12.10;;
15116;SDS011;7659;51.038;13.786;2023-05-16T02:51:45;14.95;;;12.20;;
15116;SDS011;7659;51.038;13.786;2023-05-16T02:54:11;13.45;;;12.05;;
15116;SDS011;7659;51.038;13.786;2023-05-16T02:56:36;14.25;;;12.30;;
15116;SDS011;7659;51.038;13.786;2023-05-16T02:59:02;14.88;;;12.73;;
15116;SDS011;7659;51.038;13.786;2023-05-16T03:01:28;16.38;;;13.43;;
15116;SDS011;7659;51.038;13.786;2023-05-16T03:03:54;14.45;;;12.90;;
15116;SDS011;7659;51.038;13.786;2023-05-16T03:06:19;15.88;;;12.68;;
15116;SDS011;7659;51.038;13.786;2023-05-16T03:08:45;19.08;;;13.82;;
15116;SDS011;7659;51.038;13.786;2023-05-16T03:11:11;15.02;;;13.52;;
15116;SDS011;7659;51.038;13.786;2023-05-16T03:13:39;17.25;;;13.15;;
15116;SDS011;7659;51.038;13.786;2023-05-16T03:16:05;16.95;;;12.93;;
15116;SDS011;7659;51.038;13.786;2023-05-16T03:18:30;17.55;;;14.15;;
15116;SDS011;7659;51.038;13.786;2023-05-16T03:20:56;16.98;;;12.00;;
15116;SDS011;7659;51.038;13.786;2023-05-16T03:23:22;16.05;;;12.85;;
15116;SDS011;7659;51.038;13.786;2023-05-16T03:25:48;19.90;;;14.25;;
15116;SDS011;7659;51.038;13.786;2023-05-16T03:28:14;14.75;;;12.90;;
15116;SDS011;7659;51.038;13.786;2023-05-16T03:30:40;18.10;;;13.32;;
15116;SDS011;7659;51.038;13.786;2023-05-16T03:33:06;16.17;;;13.07;;
15116;SDS011;7659;51.038;13.786;2023-05-16T03:35:32;16.27;;;13.80;;
15116;SDS011;7659;51.038;13.786;2023-05-16T03:37:57;16.33;;;13.48;;
15116;SDS011;7659;51.038;13.786;2023-05-16T03:40:23;16.45;;;13.73;;
15116;SDS011;7659;51.038;13.786;2023-05-16T03:42:48;16.52;;;13.23;;
15116;SDS011;7659;51.038;13.786;2023-05-16T03:45:14;15.88;;;13.60;;
15116;SDS011;7659;51.038;13.786;2023-05-16T03:47:39;16.15;;;13.52;;
15116;SDS011;7659;51.038;13.786;2023-05-16T03:50:05;18.42;;;13.00;;
15116;SDS011;7659;51.038;13.786;2023-05-16T03:52:32;19.98;;;13.88;;
15116;SDS011;7659;51.038;13.786;2023-05-16T03:54:58;17.50;;;14.88;;
15116;SDS011;7659;51.038;13.786;2023-05-16T03:57:23;16.65;;;13.18;;
15116;SDS011;7659;51.038;13.786;2023-05-16T03:59:48;17.38;;;14.25;;
15116;SDS011;7659;51.038;13.786;2023-05-16T04:02:14;17.92;;;13.85;;
15116;SDS011;7659;51.038;13.786;2023-05-16T04:04:39;15.35;;;12.65;;
15116;SDS011;7659;51.038;13.786;2023-05-16T04:07:05;18.65;;;13.05;;
15116;SDS011;7659;51.038;13.786;2023-05-16T04:09:31;15.40;;;13.80;;
15116;SDS011;7659;51.038;13.786;2023-05-16T04:11:57;16.10;;;13.55;;
15116;SDS011;7659;51.038;13.786;2023-05-16T04:14:26;14.98;;;13.38;;
15116;SDS011;7659;51.038;13.786;2023-05-16T04:16:51;17.23;;;12.70;;
15116;SDS011;7659;51.038;13.786;2023-05-16T04:19:17;14.80;;;13.27;;
15116;SDS011;7659;51.038;13.786;2023-05-16T04:21:42;19.42;;;13.88;;
15116;SDS011;7659;51.038;13.786;2023-05-16T04:24:08;19.50;;;13.70;;
15116;SDS011;7659;51.038;13.786;2023-05-16T04:26:34;16.65;;;13.57;;
15116;SDS011;7659;51.038;13.786;2023-05-16T04:29:00;19.33;;;14.55;;
15116;SDS011;7659;51.038;13.786;2023-05-16T04:31:25;17.70;;;14.23;;
15116;SDS011;7659;51.038;13.786;2023-05-16T04:33:51;20.15;;;14.27;;
15116;SDS011;7659;51.038;13.786;2023-05-16T04:36:16;15.23;;;12.98;;
15116;SDS011;7659;51.038;13.786;2023-05-16T04:38:42;16.95;;;13.32;;
15116;SDS011;7659;51.038;13.786;2023-05-16T04:41:07;18.27;;;13.57;;
15116;SDS011;7659;51.038;13.786;2023-05-16T04:43:33;17.42;;;14.02;;
15116;SDS011;7659;51.038;13.786;2023-05-16T04:45:59;19.05;;;14.05;;
15116;SDS011;7659;51.038;13.786;2023-05-16T04:48:25;19.65;;;14.40;;
15116;SDS011;7659;51.038;13.786;2023-05-16T04:50:50;20.65;;;14.00;;
15116;SDS011;7659;51.038;13.786;2023-05-16T04:53:16;18.73;;;14.43;;
15116;SDS011;7659;51.038;13.786;2023-05-16T04:55:42;17.75;;;14.02;;
15116;SDS011;7659;51.038;13.786;2023-05-16T04:58:07;21.05;;;13.73;;
15116;SDS011;7659;51.038;13.786;2023-05-16T05:00:33;17.02;;;14.65;;
15116;SDS011;7659;51.038;13.786;2023-05-16T05:02:58;16.33;;;13.73;;
15116;SDS011;7659;51.038;13.786;2023-05-16T05:05:24;21.35;;;14.05;;
15116;SDS011;7659;51.038;13.786;2023-05-16T05:07:49;17.73;;;14.68;;
15116;SDS011;7659;51.038;13.786;2023-05-16T05:10:15;21.48;;;14.70;;
15116;SDS011;7659;51.038;13.786;2023-05-16T05:12:40;20.90;;;14.82;;
15116;SDS011;7659;51.038;13.786;2023-05-16T05:15:06;21.60;;;15.00;;
15116;SDS011;7659;51.038;13.786;2023-05-16T05:17:32;17.40;;;14.52;;
15116;SDS011;7659;51.038;13.786;2023-05-16T05:19:57;22.98;;;14.57;;
15116;SDS011;7659;51.038;13.786;2023-05-16T05:22:23;16.95;;;14.88;;
15116;SDS011;7659;51.038;13.786;2023-05-16T05:24:48;18.42;;;14.80;;
15116;SDS011;7659;51.038;13.786;2023-05-16T05:27:14;18.13;;;15.52;;
15116;SDS011;7659;51.038;13.786;2023-05-16T05:29:40;20.05;;;16.65;;
15116;SDS011;7659;51.038;13.786;2023-05-16T05:32:06;18.98;;;15.77;;
15116;SDS011;7659;51.038;13.786;2023-05-16T05:34:32;21.52;;;15.13;;
15116;SDS011;7659;51.038;13.786;2023-05-16T05:36:58;21.48;;;16.10;;
15116;SDS011;7659;51.038;13.786;2023-05-16T05:39:23;19.60;;;15.68;;
15116;SDS011;7659;51.038;13.786;2023-05-16T05:41:49;22.08;;;16.90;;
15116;SDS011;7659;51.038;13.786;2023-05-16T05:44:15;20.67;;;17.40;;
15116;SDS011;7659;51.038;13.786;2023-05-16T05:46:40;20.10;;;17.95;;
15116;SDS011;7659;51.038;13.786;2023-05-16T05:49:06;21.77;;;18.30;;
15116;SDS011;7659;51.038;13.786;2023-05-16T05:51:31;23.42;;;19.92;;
15116;SDS011;7659;51.038;13.786;2023-05-16T05:53:57;23.02;;;18.67;;
15116;SDS011;7659;51.038;13.786;2023-05-16T05:56:22;22.48;;;19.88;;
15116;SDS011;7659;51.038;13.786;2023-05-16T05:58:49;23.50;;;19.23;;
15116;SDS011;7659;51.038;13.786;2023-05-16T06:01:14;25.40;;;20.00;;
15116;SDS011;7659;51.038;13.786;2023-05-16T06:03:41;25.98;;;20.55;;
15116;SDS011;7659;51.038;13.786;2023-05-16T06:06:07;25.13;;;20.77;;
15116;SDS011;7659;51.038;13.786;2023-05-16T06:08:32;23.45;;;20.30;;
15116;SDS011;7659;51.038;13.786;2023-05-16T06:10:58;28.42;;;21.05;;
15116;SDS011;7659;51.038;13.786;2023-05-16T06:13:24;23.42;;;20.95;;
15116;SDS011;7659;51.038;13.786;2023-05-16T06:15:53;23.23;;;20.30;;
15116;SDS011;7659;51.038;13.786;2023-05-16T06:18:18;26.17;;;20.60;;
15116;SDS011;7659;51.038;13.786;2023-05-16T06:20:44;24.92;;;21.92;;
15116;SDS011;7659;51.038;13.786;2023-05-16T06:23:09;24.13;;;21.52;;
15116;SDS011;7659;51.038;13.786;2023-05-16T06:25:35;25.88;;;21.70;;
15116;SDS011;7659;51.038;13.786;2023-05-16T06:28:01;27.05;;;22.80;;
15116;SDS011;7659;51.038;13.786;2023-05-16T06:30:26;24.52;;;21.90;;
15116;SDS011;7659;51.038;13.786;2023-05-16T06:32:51;37.83;;;24.77;;
15116;SDS011;7659;51.038;13.786;2023-05-16T06:35:17;36.17;;;25.90;;
15116;SDS011;7659;51.038;13.786;2023-05-16T06:37:42;34.95;;;27.75;;
15116;SDS011;7659;51.038;13.786;2023-05-16T06:40:08;38.45;;;30.63;;
15116;SDS011;7659;51.038;13.786;2023-05-16T06:42:34;40.38;;;31.85;;
15116;SDS011;7659;51.038;13.786;2023-05-16T06:44:59;41.95;;;33.28;;
15116;SDS011;7659;51.038;13.786;2023-05-16T06:47:25;44.58;;;33.97;;
15116;SDS011;7659;51.038;13.786;2023-05-16T06:49:50;46.35;;;34.28;;
15116;SDS011;7659;51.038;13.786;2023-05-16T06:54:55;47.47;;;35.35;;
15116;SDS011;7659;51.038;13.786;2023-05-16T06:57:21;46.33;;;34.80;;
15116;SDS011;7659;51.038;13.786;2023-05-16T06:59:46;44.40;;;34.63;;
15116;SDS011;7659;51.038;13.786;2023-05-16T07:02:12;41.83;;;34.70;;
15116;SDS011;7659;51.038;13.786;2023-05-16T07:04:37;45.22;;;34.25;;
15116;SDS011;7659;51.038;13.786;2023-05-16T07:07:03;42.90;;;35.30;;
15116;SDS011;7659;51.038;13.786;2023-05-16T07:09:29;39.22;;;33.45;;
15116;SDS011;7659;51.038;13.786;2023-05-16T07:11:55;39.63;;;33.78;;
15116;SDS011;7659;51.038;13.786;2023-05-16T07:14:20;42.28;;;34.13;;
15116;SDS011;7659;51.038;13.786;2023-05-16T07:16:46;39.22;;;30.45;;
15116;SDS011;7659;51.038;13.786;2023-05-16T07:19:11;36.28;;;29.70;;
15116;SDS011;7659;51.038;13.786;2023-05-16T07:21:37;28.52;;;24.95;;
15116;SDS011;7659;51.038;13.786;2023-05-16T07:24:02;31.48;;;24.65;;
15116;SDS011;7659;51.038;13.786;2023-05-16T07:26:28;28.73;;;24.02;;
15116;SDS011;7659;51.038;13.786;2023-05-16T07:28:54;25.50;;;21.38;;
15116;SDS011;7659;51.038;13.786;2023-05-16T07:31:19;26.80;;;19.90;;
15116;SDS011;7659;51.038;13.786;2023-05-16T07:33:45;25.20;;;19.70;;
15116;SDS011;7659;51.038;13.786;2023-05-16T07:36:11;26.25;;;21.23;;
15116;SDS011;7659;51.038;13.786;2023-05-16T07:38:37;23.05;;;19.13;;
15116;SDS011;7659;51.038;13.786;2023-05-16T07:41:02;29.75;;;20.88;;
15116;SDS011;7659;51.038;13.786;2023-05-16T07:43:28;26.70;;;19.98;;
15116;SDS011;7659;51.038;13.786;2023-05-16T07:45:53;23.45;;;19.75;;
15116;SDS011;7659;51.038;13.786;2023-05-16T07:48:19;23.17;;;18.85;;
15116;SDS011;7659;51.038;13.786;2023-05-16T07:50:45;23.35;;;18.85;;
15116;SDS011;7659;51.038;13.786;2023-05-16T07:53:10;30.25;;;19.98;;
15116;SDS011;7659;51.038;13.786;2023-05-16T07:55:36;22.40;;;18.23;;
15116;SDS011;7659;51.038;13.786;2023-05-16T07:58:02;21.92;;;17.75;;
15116;SDS011;7659;51.038;13.786;2023-05-16T08:00:27;37.50;;;17.58;;
15116;SDS011;7659;51.038;13.786;2023-05-16T08:02:53;24.17;;;18.00;;
15116;SDS011;7659;51.038;13.786;2023-05-16T08:05:18;21.77;;;16.80;;
15116;SDS011;7659;51.038;13.786;2023-05-16T08:07:44;22.77;;;18.15;;
15116;SDS011;7659;51.038;13.786;2023-05-16T08:10:10;23.05;;;17.45;;
15116;SDS011;7659;51.038;13.786;2023-05-16T08:12:35;20.20;;;15.52;;
15116;SDS011;7659;51.038;13.786;2023-05-16T08:15:02;18.90;;;16.25;;
15116;SDS011;7659;51.038;13.786;2023-05-16T08:17:27;23.05;;;16.90;;
15116;SDS011;7659;51.038;13.786;2023-05-16T08:19:53;23.90;;;16.70;;
15116;SDS011;7659;51.038;13.786;2023-05-16T08:22:18;23.45;;;15.65;;
15116;SDS011;7659;51.038;13.786;2023-05-16T08:24:44;22.58;;;15.13;;
15116;SDS011;7659;51.038;13.786;2023-05-16T08:27:09;17.95;;;14.48;;
15116;SDS011;7659;51.038;13.786;2023-05-16T08:29:36;20.48;;;14.93;;
15116;SDS011;7659;51.038;13.786;2023-05-16T08:32:01;18.92;;;13.50;;
15116;SDS011;7659;51.038;13.786;2023-05-16T08:34:29;20.60;;;13.90;;
15116;SDS011;7659;51.038;13.786;2023-05-16T08:36:55;15.52;;;13.77;;
15116;SDS011;7659;51.038;13.786;2023-05-16T08:39:20;17.65;;;13.32;;
15116;SDS011;7659;51.038;13.786;2023-05-16T08:41:46;19.95;;;13.30;;
15116;SDS011;7659;51.038;13.786;2023-05-16T08:44:12;20.33;;;13.57;;
15116;SDS011;7659;51.038;13.786;2023-05-16T08:46:47;18.27;;;13.75;;
15116;SDS011;7659;51.038;13.786;2023-05-16T08:49:14;18.02;;;12.75;;
15116;SDS011;7659;51.038;13.786;2023-05-16T08:51:41;15.82;;;13.13;;
15116;SDS011;7659;51.038;13.786;2023-05-16T08:54:10;15.38;;;13.05;;
15116;SDS011;7659;51.038;13.786;2023-05-16T08:56:36;18.95;;;13.48;;
15116;SDS011;7659;51.038;13.786;2023-05-16T08:59:02;17.00;;;13.07;;
15116;SDS011;7659;51.038;13.786;2023-05-16T09:01:29;17.45;;;12.15;;
15116;SDS011;7659;51.038;13.786;2023-05-16T09:03:55;16.05;;;11.95;;
15116;SDS011;7659;51.038;13.786;2023-05-16T09:06:20;19.58;;;12.73;;
15116;SDS011;7659;51.038;13.786;2023-05-16T09:08:46;16.77;;;12.65;;
15116;SDS011;7659;51.038;13.786;2023-05-16T09:11:11;17.90;;;13.13;;
15116;SDS011;7659;51.038;13.786;2023-05-16T09:13:37;18.88;;;11.43;;
15116;SDS011;7659;51.038;13.786;2023-05-16T09:16:07;19.85;;;12.40;;
15116;SDS011;7659;51.038;13.786;2023-05-16T09:18:32;15.70;;;10.88;;
15116;SDS011;7659;51.038;13.786;2023-05-16T09:20:58;17.67;;;11.57;;
15116;SDS011;7659;51.038;13.786;2023-05-16T09:23:24;16.65;;;11.20;;
15116;SDS011;7659;51.038;13.786;2023-05-16T09:25:51;22.35;;;11.70;;
15116;SDS011;7659;51.038;13.786;2023-05-16T09:28:17;14.98;;;11.15;;
15116;SDS011;7659;51.038;13.786;2023-05-16T09:30:44;17.17;;;11.77;;
15116;SDS011;7659;51.038;13.786;2023-05-16T09:33:10;16.17;;;10.35;;
15116;SDS011;7659;51.038;13.786;2023-05-16T09:35:36;19.67;;;11.02;;
15116;SDS011;7659;51.038;13.786;2023-05-16T09:38:01;15.10;;;10.55;;
15116;SDS011;7659;51.038;13.786;2023-05-16T09:40:27;18.67;;;11.52;;
15116;SDS011;7659;51.038;13.786;2023-05-16T09:43:02;15.77;;;10.63;;
15116;SDS011;7659;51.038;13.786;2023-05-16T09:45:29;14.00;;;11.02;;
15116;SDS011;7659;51.038;13.786;2023-05-16T09:47:57;17.17;;;11.68;;
15116;SDS011;7659;51.038;13.786;2023-05-16T09:50:23;14.45;;;10.65;;
15116;SDS011;7659;51.038;13.786;2023-05-16T09:52:49;16.20;;;10.65;;
15116;SDS011;7659;51.038;13.786;2023-05-16T09:55:15;15.38;;;10.18;;
15116;SDS011;7659;51.038;13.786;2023-05-16T09:57:40;13.18;;;9.95;;
15116;SDS011;7659;51.038;13.786;2023-05-16T10:00:06;15.30;;;10.73;;
15116;SDS011;7659;51.038;13.786;2023-05-16T10:02:34;17.48;;;10.88;;
15116;SDS011;7659;51.038;13.786;2023-05-16T10:05:01;12.82;;;10.35;;
15116;SDS011;7659;51.038;13.786;2023-05-16T10:07:26;14.68;;;10.88;;
15116;SDS011;7659;51.038;13.786;2023-05-16T10:09:52;19.55;;;10.95;;
15116;SDS011;7659;51.038;13.786;2023-05-16T10:12:18;17.17;;;11.45;;
15116;SDS011;7659;51.038;13.786;2023-05-16T10:14:44;17.13;;;10.23;;
15116;SDS011;7659;51.038;13.786;2023-05-16T10:17:11;14.38;;;9.90;;
15116;SDS011;7659;51.038;13.786;2023-05-16T10:19:38;13.48;;;10.30;;
15116;SDS011;7659;51.038;13.786;2023-05-16T10:22:05;15.15;;;10.88;;
15116;SDS011;7659;51.038;13.786;2023-05-16T10:24:44;15.18;;;10.02;;
15116;SDS011;7659;51.038;13.786;2023-05-16T10:27:11;11.82;;;9.32;;
15116;SDS011;7659;51.038;13.786;2023-05-16T10:29:37;12.13;;;9.38;;
15116;SDS011;7659;51.038;13.786;2023-05-16T10:32:03;19.15;;;9.38;;
15116;SDS011;7659;51.038;13.786;2023-05-16T10:34:31;17.92;;;9.90;;
15116;SDS011;7659;51.038;13.786;2023-05-16T10:36:56;16.52;;;10.02;;
15116;SDS011;7659;51.038;13.786;2023-05-16T10:39:22;13.90;;;9.68;;
15116;SDS011;7659;51.038;13.786;2023-05-16T10:41:48;11.40;;;9.52;;
15116;SDS011;7659;51.038;13.786;2023-05-16T10:44:14;13.27;;;9.27;;
15116;SDS011;7659;51.038;13.786;2023-05-16T10:46:41;13.68;;;10.18;;
15116;SDS011;7659;51.038;13.786;2023-05-16T10:49:22;20.13;;;9.07;;
15116;SDS011;7659;51.038;13.786;2023-05-16T10:52:01;12.68;;;8.82;;
15116;SDS011;7659;51.038;13.786;2023-05-16T10:54:32;17.40;;;8.65;;
15116;SDS011;7659;51.038;13.786;2023-05-16T10:56:58;10.52;;;8.63;;
15116;SDS011;7659;51.038;13.786;2023-05-16T10:59:28;9.80;;;8.63;;
15116;SDS011;7659;51.038;13.786;2023-05-16T11:01:54;10.65;;;8.20;;
15116;SDS011;7659;51.038;13.786;2023-05-16T11:04:19;10.63;;;8.23;;
15116;SDS011;7659;51.038;13.786;2023-05-16T11:06:46;10.48;;;7.32;;
15116;SDS011;7659;51.038;13.786;2023-05-16T11:11:43;11.73;;;7.85;;
15116;SDS011;7659;51.038;13.786;2023-05-16T11:14:25;10.45;;;6.63;;
15116;SDS011;7659;51.038;13.786;2023-05-16T11:16:52;12.65;;;6.88;;
15116;SDS011;7659;51.038;13.786;2023-05-16T11:24:47;11.23;;;6.13;;
15116;SDS011;7659;51.038;13.786;2023-05-16T11:27:13;12.07;;;6.40;;
15116;SDS011;7659;51.038;13.786;2023-05-16T11:29:43;14.25;;;6.95;;
15116;SDS011;7659;51.038;13.786;2023-05-16T11:32:09;9.85;;;6.05;;
15116;SDS011;7659;51.038;13.786;2023-05-16T11:34:35;7.65;;;5.50;;
15116;SDS011;7659;51.038;13.786;2023-05-16T11:37:01;8.57;;;5.35;;
15116;SDS011;7659;51.038;13.786;2023-05-16T11:39:29;7.07;;;5.20;;
15116;SDS011;7659;51.038;13.786;2023-05-16T11:41:54;9.63;;;5.05;;
15116;SDS011;7659;51.038;13.786;2023-05-16T11:44:20;8.20;;;5.43;;
15116;SDS011;7659;51.038;13.786;2023-05-16T11:46:45;8.15;;;4.80;;
15116;SDS011;7659;51.038;13.786;2023-05-16T11:49:11;11.45;;;5.30;;
15116;SDS011;7659;51.038;13.786;2023-05-16T11:51:41;8.77;;;4.97;;
15116;SDS011;7659;51.038;13.786;2023-05-16T11:54:10;10.05;;;5.13;;
15116;SDS011;7659;51.038;13.786;2023-05-16T11:56:37;9.23;;;4.72;;
15116;SDS011;7659;51.038;13.786;2023-05-16T11:59:03;7.10;;;4.30;;
15116;SDS011;7659;51.038;13.786;2023-05-16T12:01:32;10.75;;;4.35;;
15116;SDS011;7659;51.038;13.786;2023-05-16T12:03:58;8.07;;;4.72;;
15116;SDS011;7659;51.038;13.786;2023-05-16T12:06:23;12.05;;;4.60;;
15116;SDS011;7659;51.038;13.786;2023-05-16T12:08:49;6.75;;;4.40;;
15116;SDS011;7659;51.038;13.786;2023-05-16T12:11:15;8.60;;;4.38;;
15116;SDS011;7659;51.038;13.786;2023-05-16T12:13:41;8.40;;;4.65;;
15116;SDS011;7659;51.038;13.786;2023-05-16T12:16:06;5.53;;;4.50;;
15116;SDS011;7659;51.038;13.786;2023-05-16T12:18:32;9.32;;;4.55;;
15116;SDS011;7659;51.038;13.786;2023-05-16T12:20:57;11.20;;;5.40;;
15116;SDS011;7659;51.038;13.786;2023-05-16T12:23:23;6.72;;;4.60;;
15116;SDS011;7659;51.038;13.786;2023-05-16T12:25:50;16.25;;;4.93;;
15116;SDS011;7659;51.038;13.786;2023-05-16T12:28:18;10.23;;;4.70;;
15116;SDS011;7659;51.038;13.786;2023-05-16T12:30:43;7.78;;;4.95;;
15116;SDS011;7659;51.038;13.786;2023-05-16T12:33:09;7.47;;;4.57;;
15116;SDS011;7659;51.038;13.786;2023-05-16T12:35:39;8.07;;;4.60;;
15116;SDS011;7659;51.038;13.786;2023-05-16T12:38:06;6.25;;;4.03;;
15116;SDS011;7659;51.038;13.786;2023-05-16T12:40:32;10.93;;;4.95;;
15116;SDS011;7659;51.038;13.786;2023-05-16T12:42:58;8.50;;;4.47;;
15116;SDS011;7659;51.038;13.786;2023-05-16T12:45:25;9.77;;;4.68;;
15116;SDS011;7659;51.038;13.786;2023-05-16T12:47:52;10.55;;;4.55;;
15116;SDS011;7659;51.038;13.786;2023-05-16T12:50:17;8.52;;;4.43;;
15116;SDS011;7659;51.038;13.786;2023-05-16T12:52:49;9.70;;;4.20;;
15116;SDS011;7659;51.038;13.786;2023-05-16T12:55:15;8.57;;;3.47;;
15116;SDS011;7659;51.038;13.786;2023-05-16T12:57:41;5.95;;;3.70;;
15116;SDS011;7659;51.038;13.786;2023-05-16T13:00:08;5.97;;;3.88;;
15116;SDS011;7659;51.038;13.786;2023-05-16T13:02:36;6.15;;;4.00;;
15116;SDS011;7659;51.038;13.786;2023-05-16T13:05:01;9.48;;;4.40;;
15116;SDS011;7659;51.038;13.786;2023-05-16T13:07:27;6.82;;;4.22;;
15116;SDS011;7659;51.038;13.786;2023-05-16T13:09:52;5.45;;;3.78;;
15116;SDS011;7659;51.038;13.786;2023-05-16T13:12:18;9.18;;;4.45;;
15116;SDS011;7659;51.038;13.786;2023-05-16T13:14:43;8.82;;;4.28;;
15116;SDS011;7659;51.038;13.786;2023-05-16T13:17:09;8.98;;;4.07;;
15116;SDS011;7659;51.038;13.786;2023-05-16T13:19:36;7.45;;;3.92;;
15116;SDS011;7659;51.038;13.786;2023-05-16T13:22:01;7.32;;;3.90;;
15116;SDS011;7659;51.038;13.786;2023-05-16T13:24:27;9.60;;;4.03;;
15116;SDS011;7659;51.038;13.786;2023-05-16T13:26:52;9.80;;;4.68;;
15116;SDS011;7659;51.038;13.786;2023-05-16T13:29:17;6.25;;;4.20;;
15116;SDS011;7659;51.038;13.786;2023-05-16T13:31:43;7.78;;;4.18;;
15116;SDS011;7659;51.038;13.786;2023-05-16T13:34:09;7.30;;;3.85;;
15116;SDS011;7659;51.038;13.786;2023-05-16T13:36:34;12.25;;;4.28;;
15116;SDS011;7659;51.038;13.786;2023-05-16T13:39:01;8.25;;;4.30;;
15116;SDS011;7659;51.038;13.786;2023-05-16T13:41:26;8.05;;;3.88;;
15116;SDS011;7659;51.038;13.786;2023-05-16T13:43:51;9.85;;;3.70;;
15116;SDS011;7659;51.038;13.786;2023-05-16T13:46:17;5.55;;;3.40;;
15116;SDS011;7659;51.038;13.786;2023-05-16T13:48:42;5.45;;;3.28;;
15116;SDS011;7659;51.038;13.786;2023-05-16T13:51:08;5.88;;;3.40;;
15116;SDS011;7659;51.038;13.786;2023-05-16T13:53:35;7.57;;;3.20;;
15116;SDS011;7659;51.038;13.786;2023-05-16T13:56:01;5.18;;;3.15;;
15116;SDS011;7659;51.038;13.786;2023-05-16T13:58:27;9.95;;;3.60;;
15116;SDS011;7659;51.038;13.786;2023-05-16T14:00:52;3.75;;;3.00;;
15116;SDS011;7659;51.038;13.786;2023-05-16T14:03:18;8.15;;;3.10;;
15116;SDS011;7659;51.038;13.786;2023-05-16T14:05:44;4.85;;;2.90;;
15116;SDS011;7659;51.038;13.786;2023-05-16T14:08:10;6.43;;;3.28;;
15116;SDS011;7659;51.038;13.786;2023-05-16T14:10:36;6.18;;;3.60;;
15116;SDS011;7659;51.038;13.786;2023-05-16T14:13:02;4.40;;;3.35;;
15116;SDS011;7659;51.038;13.786;2023-05-16T14:15:27;6.75;;;3.30;;
15116;SDS011;7659;51.038;13.786;2023-05-16T14:17:53;5.50;;;3.05;;
15116;SDS011;7659;51.038;13.786;2023-05-16T14:20:18;9.45;;;3.08;;
15116;SDS011;7659;51.038;13.786;2023-05-16T14:22:44;4.68;;;2.83;;
15116;SDS011;7659;51.038;13.786;2023-05-16T14:25:09;5.53;;;2.72;;
15116;SDS011;7659;51.038;13.786;2023-05-16T14:27:35;3.90;;;2.50;;
15116;SDS011;7659;51.038;13.786;2023-05-16T14:30:00;8.68;;;2.80;;
15116;SDS011;7659;51.038;13.786;2023-05-16T14:32:26;6.50;;;2.90;;
15116;SDS011;7659;51.038;13.786;2023-05-16T14:34:51;6.85;;;3.03;;
15116;SDS011;7659;51.038;13.786;2023-05-16T14:37:17;12.55;;;2.88;;
15116;SDS011;7659;51.038;13.786;2023-05-16T14:39:43;7.18;;;3.65;;
15116;SDS011;7659;51.038;13.786;2023-05-16T14:42:10;8.05;;;3.15;;